Time;durP1;ratioP1;P1;durP2;ratioP2;P2;SDS_P1;SDS_P2;PMS_P1;PMS_P2;Temp;Humidity;BMP_temperature;BMP_pressure;BME280_temperature;BME280_humidity;BME280_pressure;Samples;Min_cycle;Max_cycle;Signal;HPM_P1;HPM_P2
2022/04/20 00:00:47;;;;;;;5.70;5.40;;;9.50;98.00;;;;;;5069950;28;20666;-64
2022/04/20 00:03:13;;;;;;;5.40;5.00;;;9.50;98.90;;;;;;5070935;28;20174;-65
2022/04/20 00:05:39;;;;;;;5.97;5.47;;;9.40;99.90;;;;;;5071071;28;20619;-65
2022/04/20 00:08:05;;;;;;;6.00;5.50;;;9.30;99.90;;;;;;5071328;28;20188;-65
2022/04/20 00:10:31;;;;;;;6.63;6.00;;;9.30;99.90;;;;;;5071307;28;20185;-64
2022/04/20 00:12:57;;;;;;;6.20;5.80;;;9.20;99.90;;;;;;5073639;28;20217;-65
2022/04/20 00:15:23;;;;;;;5.87;5.47;;;9.10;99.90;;;;;;5074615;28;20236;-65
2022/04/20 00:17:49;;;;;;;7.73;7.23;;;9.00;99.90;;;;;;5074747;28;20182;-65
2022/04/20 00:20:15;;;;;;;5.73;5.33;;;9.00;99.90;;;;;;5074615;28;20679;-66
2022/04/20 00:22:41;;;;;;;6.23;5.73;;;8.90;99.90;;;;;;5075067;28;20276;-66
2022/04/20 00:25:07;;;;;;;6.23;5.63;;;8.90;99.90;;;;;;5074588;28;20564;-66
2022/04/20 00:27:37;;;;;;;6.20;5.70;;;8.80;99.90;;;;;;5074670;28;20182;-66
2022/04/20 00:30:04;;;;;;;6.70;6.20;;;8.80;99.90;;;;;;5074403;28;20252;-66
2022/04/20 00:32:30;;;;;;;6.30;5.90;;;8.70;99.90;;;;;;5074186;28;20192;-67
2022/04/20 00:34:56;;;;;;;6.20;5.80;;;8.70;99.90;;;;;;5073942;28;20683;-66
2022/04/20 00:37:22;;;;;;;5.80;5.40;;;8.70;99.90;;;;;;5073362;28;20541;-66
2022/04/20 00:39:48;;;;;;;6.67;6.17;;;8.70;99.90;;;;;;5073119;28;20201;-65
2022/04/20 00:42:14;;;;;;;6.40;6.00;;;8.70;99.90;;;;;;5073937;28;20213;-65
2022/04/20 00:44:43;;;;;;;5.70;5.40;;;8.60;99.90;;;;;;5073821;28;20240;-66
2022/04/20 00:47:10;;;;;;;6.17;5.77;;;8.60;99.90;;;;;;5074570;28;20261;-65
2022/04/20 00:49:36;;;;;;;6.13;5.70;;;8.60;99.90;;;;;;5074102;28;20177;-66
2022/04/20 00:52:04;;;;;;;6.37;5.87;;;8.60;99.90;;;;;;5063198;28;20261;-66
2022/04/20 00:54:30;;;;;;;6.07;5.77;;;8.60;99.90;;;;;;5072916;28;20186;-66
2022/04/20 00:56:55;;;;;;;6.53;6.03;;;8.60;99.90;;;;;;5072441;28;20190;-65
2022/04/20 00:59:26;;;;;;;6.87;6.47;;;8.50;99.90;;;;;;5074154;28;20174;-66
2022/04/20 01:01:53;;;;;;;7.43;6.93;;;8.50;99.90;;;;;;5073749;28;20214;-66
2022/04/20 01:04:19;;;;;;;7.10;6.50;;;8.50;99.90;;;;;;5072613;28;20185;-66
2022/04/20 01:06:50;;;;;;;6.50;6.10;;;8.40;99.90;;;;;;5072647;28;20173;-66
2022/04/20 01:09:17;;;;;;;7.40;7.00;;;8.30;99.90;;;;;;5052470;28;20183;-66
2022/04/20 01:11:43;;;;;;;7.20;6.80;;;8.20;99.90;;;;;;5053730;28;20544;-66
2022/04/20 01:14:09;;;;;;;6.77;6.27;;;8.20;99.90;;;;;;5073149;28;20182;-66
2022/04/20 01:16:35;;;;;;;6.47;6.00;;;8.10;99.90;;;;;;5072004;28;20610;-66
2022/04/20 01:19:02;;;;;;;6.67;6.17;;;8.10;99.90;;;;;;5073225;28;20190;-66
2022/04/20 01:21:28;;;;;;;7.63;6.90;;;8.00;99.90;;;;;;5073417;28;20254;-66
2022/04/20 01:23:54;;;;;;;6.17;5.70;;;7.90;99.90;;;;;;5073152;28;20261;-66
2022/04/20 01:26:20;;;;;;;6.87;6.17;;;7.80;99.90;;;;;;5073392;28;20277;-67
2022/04/20 01:28:46;;;;;;;6.57;5.97;;;7.70;99.90;;;;;;5073128;28;20182;-65
2022/04/20 01:31:16;;;;;;;6.20;5.80;;;7.70;99.90;;;;;;5073337;28;20178;-66
2022/04/20 01:33:43;;;;;;;6.27;5.73;;;7.70;99.90;;;;;;5073273;28;20193;-65
2022/04/20 01:36:10;;;;;;;6.33;5.80;;;7.70;99.90;;;;;;5072978;28;20272;-64
2022/04/20 01:38:39;;;;;;;6.87;6.37;;;7.70;99.90;;;;;;5071843;28;20259;-65
2022/04/20 01:41:06;;;;;;;7.03;6.53;;;7.80;99.90;;;;;;5071545;28;20683;-66
2022/04/20 01:43:32;;;;;;;6.93;6.33;;;7.80;99.90;;;;;;5073014;28;20239;-65
2022/04/20 01:45:57;;;;;;;5.90;5.50;;;7.80;99.90;;;;;;5072356;28;20237;-65
2022/04/20 01:48:23;;;;;;;6.20;5.80;;;7.70;99.90;;;;;;5071733;28;20291;-65
2022/04/20 01:53:33;;;;;;;6.70;6.23;;;7.70;99.90;;;;;;5072799;28;20193;-65
2022/04/20 01:56:00;;;;;;;7.00;6.30;;;7.60;99.90;;;;;;5072525;28;20567;-66
2022/04/20 01:58:27;;;;;;;6.60;6.20;;;7.60;99.90;;;;;;5072841;28;20182;-65
2022/04/20 02:00:52;;;;;;;7.87;6.77;;;7.50;99.90;;;;;;5071572;28;20205;-66
2022/04/20 02:03:18;;;;;;;6.93;6.43;;;7.40;99.90;;;;;;5072498;28;20196;-65
2022/04/20 02:05:44;;;;;;;6.57;6.07;;;7.40;99.90;;;;;;5070840;28;20247;-64
2022/04/20 02:08:10;;;;;;;7.30;6.20;;;7.30;99.90;;;;;;5072688;28;20227;-66
2022/04/20 02:10:35;;;;;;;6.70;6.20;;;7.30;99.90;;;;;;5072839;28;20185;-66
2022/04/20 02:13:01;;;;;;;6.70;6.20;;;7.30;99.90;;;;;;5070999;28;20635;-66
2022/04/20 02:15:28;;;;;;;6.80;6.03;;;7.40;99.90;;;;;;5070971;28;20194;-66
2022/04/20 02:17:53;;;;;;;7.43;6.93;;;7.40;99.90;;;;;;5072109;28;20182;-66
2022/04/20 02:20:19;;;;;;;7.00;6.40;;;7.40;99.90;;;;;;5072340;28;20198;-66
2022/04/20 02:22:45;;;;;;;7.70;7.20;;;7.40;99.90;;;;;;5072272;28;20186;-66
2022/04/20 02:25:11;;;;;;;6.97;6.27;;;7.30;99.90;;;;;;5071687;28;20208;-66
2022/04/20 02:27:37;;;;;;;7.83;7.27;;;7.20;99.90;;;;;;5070865;28;20182;-66
2022/04/20 02:30:04;;;;;;;7.60;6.70;;;7.10;99.90;;;;;;5072264;28;20178;-66
2022/04/20 02:32:29;;;;;;;9.20;6.97;;;7.00;99.90;;;;;;5070586;28;20218;-66
2022/04/20 02:34:55;;;;;;;7.90;7.33;;;7.00;99.90;;;;;;5071418;28;20689;-65
2022/04/20 02:37:21;;;;;;;7.33;6.83;;;6.90;99.90;;;;;;5070786;28;20313;-66
2022/04/20 02:39:48;;;;;;;7.40;6.90;;;6.90;99.90;;;;;;5071114;28;20263;-66
2022/04/20 02:42:13;;;;;;;7.33;6.80;;;6.80;99.90;;;;;;5070824;28;20174;-65
2022/04/20 02:44:40;;;;;;;6.93;6.43;;;6.80;99.90;;;;;;5071867;28;20212;-65
2022/04/20 02:47:06;;;;;;;7.23;6.73;;;6.70;99.90;;;;;;5071912;28;20232;-66
2022/04/20 02:49:32;;;;;;;7.80;7.13;;;6.70;99.90;;;;;;5072165;28;20163;-65
2022/04/20 02:51:58;;;;;;;7.57;7.00;;;6.60;99.90;;;;;;5071659;28;20249;-66
2022/04/20 02:54:23;;;;;;;7.20;6.70;;;6.60;99.90;;;;;;5071009;28;20202;-66
2022/04/20 02:56:49;;;;;;;7.47;6.53;;;6.50;99.90;;;;;;5070417;28;20174;-65
2022/04/20 02:59:14;;;;;;;6.70;6.20;;;6.40;99.90;;;;;;5071772;28;20247;-65
2022/04/20 03:01:40;;;;;;;7.23;6.47;;;6.40;99.90;;;;;;5071396;28;20217;-66
2022/04/20 03:04:05;;;;;;;7.27;6.63;;;6.40;99.90;;;;;;5070612;28;20253;-66
2022/04/20 03:06:31;;;;;;;7.57;6.87;;;6.30;99.90;;;;;;5071591;28;20202;-66
2022/04/20 03:08:57;;;;;;;6.70;6.13;;;6.30;99.90;;;;;;5070751;28;20213;-65
2022/04/20 03:11:23;;;;;;;6.27;5.87;;;6.30;99.90;;;;;;5071995;28;20186;-66
2022/04/20 03:13:49;;;;;;;7.13;6.63;;;6.20;99.90;;;;;;5072329;28;20746;-66
2022/04/20 03:16:15;;;;;;;8.53;7.80;;;6.20;99.90;;;;;;5071377;28;20300;-65
2022/04/20 03:18:41;;;;;;;7.43;6.83;;;6.10;99.90;;;;;;5070929;28;20174;-65
2022/04/20 03:21:07;;;;;;;7.37;6.77;;;6.10;99.90;;;;;;5070338;28;20202;-66
2022/04/20 03:23:33;;;;;;;6.67;6.23;;;6.00;99.90;;;;;;5071949;28;20262;-65
2022/04/20 03:25:58;;;;;;;6.90;6.40;;;6.00;99.90;;;;;;5070716;28;20198;-66
2022/04/20 03:28:24;;;;;;;7.33;6.83;;;5.90;99.90;;;;;;5071377;28;20185;-66
2022/04/20 03:30:50;;;;;;;7.07;6.47;;;5.90;99.90;;;;;;5070915;28;20174;-66
2022/04/20 03:33:16;;;;;;;6.83;6.23;;;5.90;99.90;;;;;;5071306;28;20181;-66
2022/04/20 03:35:43;;;;;;;7.23;6.73;;;5.80;99.90;;;;;;5070856;28;20190;-65
2022/04/20 03:38:09;;;;;;;7.63;7.13;;;5.80;99.90;;;;;;5071290;28;20202;-66
2022/04/20 03:40:35;;;;;;;6.80;6.30;;;5.70;99.90;;;;;;5070978;28;20208;-65
2022/04/20 03:43:02;;;;;;;7.57;7.00;;;5.80;99.90;;;;;;5071109;28;20173;-66
2022/04/20 03:45:27;;;;;;;7.40;6.80;;;5.70;99.90;;;;;;5070933;28;20213;-66
2022/04/20 03:47:53;;;;;;;7.30;6.80;;;5.70;99.90;;;;;;5073951;28;20174;-66
2022/04/20 03:50:19;;;;;;;7.37;6.83;;;5.60;99.90;;;;;;5074970;28;20551;-66
2022/04/20 03:52:44;;;;;;;7.50;6.80;;;5.60;99.90;;;;;;5075139;28;20197;-66
2022/04/20 03:55:10;;;;;;;6.97;6.47;;;5.60;99.90;;;;;;5074522;28;20293;-66
2022/04/20 03:57:36;;;;;;;8.03;7.43;;;5.60;99.90;;;;;;5075370;28;20180;-65
2022/04/20 04:00:04;;;;;;;7.63;7.03;;;5.50;99.90;;;;;;5074505;28;20201;-65
2022/04/20 04:02:30;;;;;;;7.87;7.10;;;5.50;99.90;;;;;;5074108;28;20257;-65
2022/04/20 04:04:56;;;;;;;7.10;6.70;;;5.50;99.90;;;;;;5074529;28;20296;-65
2022/04/20 04:07:21;;;;;;;7.60;6.90;;;5.50;99.90;;;;;;5074390;28;20259;-65
2022/04/20 04:09:47;;;;;;;7.50;6.90;;;5.40;99.90;;;;;;5073436;28;20635;-65
2022/04/20 04:12:13;;;;;;;7.40;6.90;;;5.40;99.90;;;;;;5074978;28;20178;-65
2022/04/20 04:14:39;;;;;;;8.03;7.40;;;5.40;99.90;;;;;;5074327;28;20570;-66
2022/04/20 04:17:06;;;;;;;8.17;7.57;;;5.40;99.90;;;;;;5074772;28;20255;-66
2022/04/20 04:19:32;;;;;;;7.73;7.13;;;5.40;99.90;;;;;;5074623;28;20177;-66
2022/04/20 04:21:57;;;;;;;7.73;6.97;;;5.40;99.90;;;;;;5074772;28;20206;-66
2022/04/20 04:24:35;;;;;;;8.03;7.30;;;5.40;99.90;;;;;;5074390;28;20629;-66
2022/04/20 04:27:03;;;;;;;7.30;6.80;;;5.30;99.90;;;;;;5074422;28;20216;-65
2022/04/20 04:29:29;;;;;;;7.43;6.87;;;5.30;99.90;;;;;;5074467;28;20651;-65
2022/04/20 04:31:55;;;;;;;9.20;6.90;;;5.30;99.90;;;;;;5075094;28;20193;-65
2022/04/20 04:34:21;;;;;;;7.53;7.03;;;5.30;99.90;;;;;;5074174;28;20651;-65
2022/04/20 04:36:47;;;;;;;7.60;7.00;;;5.30;99.90;;;;;;5074721;28;20173;-65
2022/04/20 04:39:17;;;;;;;7.50;6.80;;;5.30;99.90;;;;;;5074188;28;20686;-65
2022/04/20 04:41:45;;;;;;;7.10;6.67;;;5.30;99.90;;;;;;5074674;28;20214;-66
2022/04/20 04:44:10;;;;;;;7.90;7.40;;;5.40;99.90;;;;;;5072953;28;20509;-65
2022/04/20 04:49:28;;;;;;;7.67;7.07;;;5.40;99.90;;;;;;5045475;28;20273;-67
2022/04/20 04:51:55;;;;;;;8.00;7.40;;;5.50;99.90;;;;;;5052899;28;20179;-66
2022/04/20 04:54:21;;;;;;;7.77;7.17;;;5.50;99.90;;;;;;5072722;28;20179;-66
2022/04/20 04:56:47;;;;;;;7.80;7.10;;;5.60;99.90;;;;;;5072621;28;20189;-66
2022/04/20 04:59:13;;;;;;;8.13;7.43;;;5.60;99.90;;;;;;5073316;28;20184;-65
2022/04/20 05:01:38;;;;;;;7.50;6.97;;;5.60;99.90;;;;;;5072765;28;20210;-65
2022/04/20 05:04:05;;;;;;;8.33;7.67;;;5.70;99.90;;;;;;5073487;28;20269;-66
2022/04/20 05:06:31;;;;;;;7.97;7.30;;;5.70;99.90;;;;;;5073912;28;20205;-67
2022/04/20 05:08:56;;;;;;;6.80;6.30;;;5.80;99.90;;;;;;5072325;28;20170;-66
2022/04/20 05:11:22;;;;;;;7.50;7.00;;;5.90;99.90;;;;;;5073616;28;20231;-67
2022/04/20 05:13:48;;;;;;;7.70;7.20;;;6.00;99.90;;;;;;5073575;28;20177;-66
2022/04/20 05:16:13;;;;;;;7.77;7.07;;;6.00;99.90;;;;;;5073518;28;20202;-66
2022/04/20 05:18:39;;;;;;;7.60;7.10;;;6.10;99.90;;;;;;5073415;28;20276;-65
2022/04/20 05:21:04;;;;;;;8.23;7.50;;;6.20;99.90;;;;;;5073363;28;20702;-66
2022/04/20 05:23:30;;;;;;;8.43;7.73;;;6.30;99.90;;;;;;5092762;28;20185;-65
2022/04/20 05:25:56;;;;;;;8.53;7.67;;;6.40;99.90;;;;;;5074164;28;20611;-67
2022/04/20 05:28:22;;;;;;;9.17;8.50;;;6.50;99.90;;;;;;5074518;28;20166;-65
2022/04/20 05:30:48;;;;;;;8.63;7.93;;;6.60;99.90;;;;;;5072684;28;20255;-65
2022/04/20 05:33:14;;;;;;;8.30;7.60;;;6.80;99.90;;;;;;5072761;28;20183;-65
2022/04/20 05:35:40;;;;;;;7.70;7.20;;;6.90;99.90;;;;;;5073739;28;20275;-65
2022/04/20 05:43:33;;;;;;;7.47;6.87;;;7.30;99.90;;;;;;5073717;28;20180;-65
2022/04/20 05:45:59;;;;;;;7.27;6.57;;;7.40;99.90;;;;;;5071444;28;20653;-66
2022/04/20 05:48:25;;;;;;;8.47;7.87;;;7.60;99.90;;;;;;5072545;28;20182;-66
2022/04/20 05:50:50;;;;;;;7.27;6.57;;;7.70;99.90;;;;;;5054982;28;20196;-66
2022/04/20 05:53:16;;;;;;;6.97;6.53;;;7.80;99.90;;;;;;5070870;28;20201;-66
2022/04/20 05:55:42;;;;;;;6.80;6.30;;;8.00;99.90;;;;;;5072640;28;20225;-66
2022/04/20 05:58:08;;;;;;;6.60;6.07;;;8.20;99.90;;;;;;5072357;28;20241;-66
2022/04/20 06:00:33;;;;;;;5.77;5.37;;;8.50;99.90;;;;;;5070978;28;20213;-66
2022/04/20 06:02:59;;;;;;;6.20;5.80;;;9.00;99.90;;;;;;5072338;28;20189;-66
2022/04/20 06:05:25;;;;;;;6.77;6.27;;;9.60;99.90;;;;;;5071634;28;20202;-66
2022/04/20 06:07:51;;;;;;;8.00;5.63;;;10.40;99.90;;;;;;5071070;28;20647;-65
2022/04/20 06:10:16;;;;;;;5.87;5.10;;;11.10;99.90;;;;;;5069907;28;20182;-66
2022/04/20 06:12:42;;;;;;;5.37;5.07;;;11.60;99.90;;;;;;5072224;28;20641;-65
2022/04/20 06:15:08;;;;;;;6.13;5.33;;;12.20;99.90;;;;;;5096176;28;20185;-67
2022/04/20 06:17:34;;;;;;;5.43;5.00;;;12.80;99.90;;;;;;5111950;28;20204;-66
2022/04/20 06:20:01;;;;;;;5.40;5.00;;;13.20;99.90;;;;;;5092701;28;20218;-67
2022/04/20 06:22:27;;;;;;;5.10;4.60;;;13.40;99.90;;;;;;5078330;28;20242;-65
2022/04/20 06:24:52;;;;;;;4.73;4.43;;;13.60;99.90;;;;;;5072324;28;20186;-66
2022/04/20 06:27:18;;;;;;;4.73;4.33;;;13.80;99.90;;;;;;5072247;28;20167;-64
2022/04/20 06:29:44;;;;;;;4.83;4.43;;;14.00;99.90;;;;;;5070844;28;20175;-66
2022/04/20 06:32:09;;;;;;;5.70;5.20;;;14.20;99.90;;;;;;5070678;28;20805;-66
2022/04/20 06:34:35;;;;;;;4.87;4.57;;;14.50;99.90;;;;;;5071461;28;20202;-65
2022/04/20 06:37:01;;;;;;;5.33;4.93;;;14.80;99.90;;;;;;5072036;28;20174;-66
2022/04/20 06:39:28;;;;;;;6.63;4.53;;;14.80;99.90;;;;;;5071837;28;20703;-65
2022/04/20 06:41:53;;;;;;;7.93;4.93;;;15.20;99.90;;;;;;5070305;28;20198;-65
2022/04/20 06:44:19;;;;;;;5.13;4.63;;;15.50;99.90;;;;;;5071504;28;20541;-65
2022/04/20 06:46:45;;;;;;;6.73;4.30;;;15.70;99.90;;;;;;5071851;28;20170;-66
2022/04/20 06:49:12;;;;;;;5.03;4.53;;;15.80;99.90;;;;;;5071692;28;20185;-66
2022/04/20 06:59:53;;;;;;;7.70;4.40;;;16.70;99.90;;;;;;5071293;28;20271;-66
2022/04/20 07:02:19;;;;;;;5.20;4.77;;;16.60;98.80;;;;;;5071350;28;20173;-66
2022/04/20 07:04:45;;;;;;;5.37;4.90;;;16.50;98.90;;;;;;5071628;28;20267;-67
2022/04/20 07:07:10;;;;;;;5.57;4.60;;;16.60;99.60;;;;;;5071170;28;20194;-67
2022/04/20 07:09:36;;;;;;;5.47;4.83;;;16.70;98.60;;;;;;5070542;28;20185;-67
2022/04/20 07:12:01;;;;;;;5.20;4.47;;;16.70;99.90;;;;;;5071422;28;20177;-67
2022/04/20 07:14:27;;;;;;;9.73;4.83;;;17.00;99.60;;;;;;5069310;28;20260;-66
2022/04/20 07:16:53;;;;;;;4.70;4.30;;;17.20;99.80;;;;;;5071574;28;20201;-66
2022/04/20 07:19:18;;;;;;;5.60;4.00;;;17.30;96.10;;;;;;5069817;28;20643;-67
2022/04/20 07:21:44;;;;;;;4.37;4.00;;;17.30;96.40;;;;;;5071130;28;20197;-67
2022/04/20 07:24:09;;;;;;;7.33;3.93;;;17.40;94.40;;;;;;5070867;28;20269;-68
2022/04/20 07:26:35;;;;;;;6.10;4.30;;;17.50;93.60;;;;;;5071127;28;20198;-66
2022/04/20 07:29:00;;;;;;;4.68;4.28;;;17.50;93.30;;;;;;5071304;28;20174;-67
2022/04/20 07:31:26;;;;;;;5.30;3.97;;;17.30;92.20;;;;;;5070320;28;20253;-66
2022/04/20 07:33:52;;;;;;;5.17;4.10;;;17.20;91.10;;;;;;5049969;28;20179;-66
2022/04/20 07:36:18;;;;;;;5.93;4.90;;;17.30;92.00;;;;;;5068144;28;20204;-66
2022/04/20 07:38:45;;;;;;;6.38;4.18;;;17.60;92.00;;;;;;5070918;28;20182;-67
2022/04/20 07:41:10;;;;;;;4.47;3.87;;;17.90;91.70;;;;;;5070589;28;20201;-67
2022/04/20 07:43:36;;;;;;;4.55;4.18;;;18.10;89.80;;;;;;5070555;28;20174;-68
2022/04/20 07:46:02;;;;;;;4.22;3.70;;;18.50;91.80;;;;;;5070527;28;20248;-65
2022/04/20 07:48:27;;;;;;;6.43;4.60;;;18.80;88.60;;;;;;5085530;28;20174;-68
2022/04/20 07:50:53;;;;;;;4.85;4.20;;;18.90;81.60;;;;;;5071096;28;20170;-67
2022/04/20 07:53:19;;;;;;;4.25;3.95;;;19.00;86.20;;;;;;5069413;28;20182;-67
2022/04/20 07:55:46;;;;;;;4.33;3.87;;;19.20;80.70;;;;;;5070701;28;20538;-67
2022/04/20 07:58:12;;;;;;;4.72;3.90;;;19.40;84.40;;;;;;5070786;28;20672;-67
2022/04/20 08:00:38;;;;;;;6.00;4.63;;;19.00;78.90;;;;;;5069949;28;20578;-66
2022/04/20 08:03:16;;;;;;;8.77;4.32;;;18.80;76.00;;;;;;5070912;28;20167;-66
2022/04/20 08:05:42;;;;;;;4.30;4.00;;;18.90;79.00;;;;;;5049347;28;20199;-67
2022/04/20 08:08:10;;;;;;;3.90;3.70;;;18.80;76.50;;;;;;5050613;28;20169;-66
2022/04/20 08:10:37;;;;;;;4.60;3.80;;;18.70;75.50;;;;;;5070644;28;20175;-67
2022/04/20 08:14:09;;;;;;;3.65;3.42;;;18.50;75.60;;;;;;5070707;28;20536;-66
2022/04/20 08:15:48;;;;;;;4.63;4.00;;;18.40;76.10;;;;;;5050286;28;20252;-67
2022/04/20 08:18:14;;;;;;;3.80;3.60;;;18.80;74.60;;;;;;5050418;28;20183;-65
2022/04/20 08:20:39;;;;;;;4.38;4.07;;;19.10;74.70;;;;;;5069193;28;20232;-67
2022/04/20 08:23:05;;;;;;;3.42;3.22;;;19.30;71.70;;;;;;5070671;28;20166;-67
2022/04/20 08:25:31;;;;;;;3.95;3.65;;;19.50;76.00;;;;;;5069939;28;20240;-66
2022/04/20 08:27:56;;;;;;;4.20;3.80;;;19.90;70.70;;;;;;5069490;28;20176;-67
2022/04/20 08:30:22;;;;;;;4.40;3.80;;;20.00;70.30;;;;;;5070352;28;20220;-67
2022/04/20 08:32:47;;;;;;;4.97;3.70;;;20.20;70.10;;;;;;5070976;28;20182;-66
2022/04/20 08:35:13;;;;;;;4.93;3.58;;;20.50;72.90;;;;;;5073448;28;20225;-67
2022/04/20 08:37:39;;;;;;;4.00;3.70;;;20.30;69.50;;;;;;5073968;28;20181;-66
2022/04/20 08:40:05;;;;;;;3.92;3.63;;;20.10;70.80;;;;;;5073104;28;20227;-66
2022/04/20 08:42:34;;;;;;;3.60;3.40;;;20.10;66.00;;;;;;5074079;28;20224;-67
2022/04/20 08:45:02;;;;;;;3.80;3.50;;;20.20;66.00;;;;;;5073148;28;20226;-66
2022/04/20 08:47:38;;;;;;;4.35;4.00;;;20.20;65.70;;;;;;5074039;28;20227;-67
2022/04/20 08:50:05;;;;;;;3.90;3.63;;;19.90;68.00;;;;;;5073466;28;20184;-66
2022/04/20 08:52:46;;;;;;;3.67;3.33;;;19.70;65.50;;;;;;5088261;28;20177;-67
2022/04/20 08:55:17;;;;;;;4.13;3.78;;;19.50;64.60;;;;;;5090838;28;20189;-67
2022/04/20 08:57:46;;;;;;;4.00;3.70;;;19.30;64.70;;;;;;5073680;28;20170;-67
2022/04/20 09:00:28;;;;;;;4.18;3.90;;;19.20;66.50;;;;;;5072282;28;20194;-68
2022/04/20 09:02:56;;;;;;;4.25;3.90;;;19.40;65.50;;;;;;5073455;28;20178;-66
2022/04/20 09:05:23;;;;;;;4.00;3.70;;;19.40;64.10;;;;;;5072016;28;20957;-68
2022/04/20 09:07:49;;;;;;;4.05;3.75;;;19.60;67.50;;;;;;5073386;28;20166;-67
2022/04/20 09:10:16;;;;;;;4.10;3.80;;;19.70;65.80;;;;;;5073329;28;20674;-67
2022/04/20 09:12:43;;;;;;;5.05;3.67;;;19.90;66.70;;;;;;5072042;28;20182;-67
2022/04/20 09:15:14;;;;;;;4.15;3.85;;;20.00;65.30;;;;;;5072886;28;20220;-66
2022/04/20 09:17:44;;;;;;;3.90;3.60;;;20.10;64.30;;;;;;5073473;28;20182;-67
2022/04/20 09:20:16;;;;;;;3.95;3.58;;;20.50;69.40;;;;;;5073024;28;20201;-66
2022/04/20 09:22:57;;;;;;;4.22;3.83;;;20.90;68.60;;;;;;5070946;28;20913;-67
2022/04/20 09:25:29;;;;;;;6.40;3.90;;;21.50;67.80;;;;;;5055395;28;20552;-66
2022/04/20 09:27:55;;;;;;;4.10;3.80;;;21.90;66.80;;;;;;5073218;28;20166;-68
2022/04/20 09:30:21;;;;;;;4.10;3.80;;;22.20;65.70;;;;;;5073033;28;20193;-67
2022/04/20 09:32:47;;;;;;;4.10;3.63;;;22.50;62.30;;;;;;5073244;28;20177;-66
2022/04/20 09:35:22;;;;;;;4.05;3.25;;;22.70;63.70;;;;;;5072577;28;20201;-67
2022/04/20 09:38:04;;;;;;;4.03;3.72;;;22.70;63.00;;;;;;5070146;28;20174;-66
2022/04/20 09:40:34;;;;;;;4.30;3.90;;;21.60;57.60;;;;;;5072691;28;20299;-67
2022/04/20 09:43:06;;;;;;;4.20;3.83;;;21.20;63.00;;;;;;5072315;28;20178;-67
2022/04/20 09:45:33;;;;;;;3.63;3.42;;;21.00;63.50;;;;;;5072545;28;20288;-67
2022/04/20 09:51:14;;;;;;;4.28;3.97;;;21.10;63.80;;;;;;5056532;28;20181;-67
2022/04/20 09:53:47;;;;;;;7.47;4.90;;;20.70;58.70;;;;;;5070935;28;20185;-68
2022/04/20 09:56:24;;;;;;;4.53;4.22;;;20.40;61.60;;;;;;5070476;28;20213;-67
2022/04/20 09:59:00;;;;;;;4.10;3.70;;;20.90;63.60;;;;;;5072762;28;20208;-68
2022/04/20 10:01:31;;;;;;;3.65;3.45;;;21.30;60.80;;;;;;5072633;28;20197;-66
2022/04/20 10:03:58;;;;;;;4.40;4.00;;;20.90;60.10;;;;;;5072774;28;20234;-66
2022/04/20 10:06:24;;;;;;;4.20;3.78;;;20.90;65.30;;;;;;5071893;28;20221;-67
2022/04/20 10:08:50;;;;;;;6.03;5.10;;;21.00;58.90;;;;;;5072640;28;20202;-66
2022/04/20 10:11:16;;;;;;;4.35;3.90;;;20.70;63.40;;;;;;5071026;28;20636;-66
2022/04/20 10:13:43;;;;;;;4.07;3.78;;;20.60;59.50;;;;;;5096870;28;20331;-65
2022/04/20 10:16:12;;;;;;;3.67;3.47;;;20.60;66.40;;;;;;5095314;28;20193;-66
2022/04/20 10:18:41;;;;;;;4.32;3.92;;;20.30;59.10;;;;;;5096194;28;20189;-66
2022/04/20 10:21:12;;;;;;;4.28;3.97;;;20.20;61.90;;;;;;5079471;28;20217;-66
2022/04/20 10:23:47;;;;;;;3.38;3.17;;;20.30;59.30;;;;;;5053445;28;20174;-66
2022/04/20 10:26:14;;;;;;;3.92;3.63;;;20.50;60.60;;;;;;5052779;28;20289;-66
2022/04/20 10:28:58;;;;;;;4.70;4.30;;;20.70;63.70;;;;;;5069702;28;20190;-66
2022/04/20 10:31:41;;;;;;;4.65;4.25;;;20.90;62.10;;;;;;5070583;28;20428;-66
2022/04/20 10:34:07;;;;;;;3.78;3.47;;;21.50;62.60;;;;;;5071949;28;20182;-66
2022/04/20 10:36:34;;;;;;;3.80;3.50;;;21.60;58.80;;;;;;5070867;28;20235;-66
2022/04/20 10:39:22;;;;;;;4.15;3.58;;;21.70;62.30;;;;;;5070593;28;20601;-66
2022/04/20 10:42:17;;;;;;;4.20;3.42;;;21.90;63.70;;;;;;5072378;28;20259;-66
2022/04/20 10:44:52;;;;;;;4.95;3.60;;;21.50;58.30;;;;;;5072955;28;20209;-67
2022/04/20 10:47:31;;;;;;;3.92;3.47;;;21.70;59.30;;;;;;5072416;28;20173;-67
2022/04/20 10:50:23;;;;;;;3.45;3.17;;;22.00;64.60;;;;;;5072914;28;20216;-67
2022/04/20 10:52:58;;;;;;;3.80;3.50;;;22.50;66.30;;;;;;5072463;28;20182;-67
2022/04/20 10:55:36;;;;;;;3.53;3.22;;;22.70;59.70;;;;;;5070775;28;20182;-66
2022/04/20 10:58:22;;;;;;;3.70;3.40;;;22.80;60.40;;;;;;5071235;28;20200;-66
2022/04/20 11:01:08;;;;;;;3.47;3.20;;;22.90;60.00;;;;;;5070234;28;20284;-66
2022/04/20 11:03:53;;;;;;;3.85;3.58;;;23.10;65.10;;;;;;5051435;28;20177;-66
2022/04/20 11:06:19;;;;;;;3.60;3.30;;;23.60;61.50;;;;;;5052987;28;20192;-66
2022/04/20 11:08:45;;;;;;;3.50;3.30;;;24.00;64.20;;;;;;5070432;28;20692;-66
2022/04/20 11:20:05;;;;;;;3.80;3.50;;;22.70;58.20;;;;;;5051231;28;20178;-66
2022/04/20 11:22:31;;;;;;;3.67;3.30;;;22.60;59.20;;;;;;5061509;28;20521;-67
2022/04/20 11:25:05;;;;;;;3.72;3.33;;;22.60;57.10;;;;;;5071008;28;20192;-66
2022/04/20 11:27:35;;;;;;;3.40;3.20;;;22.70;60.90;;;;;;5071007;28;20162;-66
2022/04/20 11:30:04;;;;;;;3.85;3.55;;;22.60;58.20;;;;;;5070766;28;20304;-66
2022/04/20 11:32:31;;;;;;;3.78;3.47;;;22.10;57.70;;;;;;5070622;28;20261;-66
2022/04/20 11:35:07;;;;;;;4.03;3.33;;;22.00;58.00;;;;;;5070797;28;20528;-66
2022/04/20 11:37:37;;;;;;;3.10;2.90;;;22.20;59.70;;;;;;5068705;28;20662;-66
2022/04/20 11:40:13;;;;;;;3.75;3.30;;;22.00;55.50;;;;;;5069505;28;20173;-66
2022/04/20 11:42:39;;;;;;;3.67;3.38;;;21.50;56.90;;;;;;5071116;28;20310;-66
2022/04/20 11:45:06;;;;;;;3.47;3.20;;;21.20;56.50;;;;;;5070652;28;20612;-66
2022/04/20 11:47:39;;;;;;;3.30;2.97;;;21.30;56.60;;;;;;5071340;28;20178;-67
2022/04/20 11:50:09;;;;;;;3.72;3.42;;;21.80;57.80;;;;;;5071212;28;20170;-66
2022/04/20 11:52:34;;;;;;;3.25;3.05;;;22.20;58.20;;;;;;5070984;28;20265;-67
2022/04/20 11:55:09;;;;;;;3.67;3.47;;;22.20;59.40;;;;;;5070627;28;20268;-66
2022/04/20 11:57:35;;;;;;;3.90;3.50;;;22.30;57.70;;;;;;5071274;28;20181;-66
2022/04/20 12:00:00;;;;;;;3.80;3.10;;;22.50;57.60;;;;;;5070777;28;20162;-66
2022/04/20 12:02:26;;;;;;;3.20;3.00;;;22.90;57.80;;;;;;5069569;28;20181;-67
2022/04/20 12:05:07;;;;;;;3.78;3.40;;;23.00;57.30;;;;;;5070665;28;20197;-66
2022/04/20 12:07:33;;;;;;;3.30;3.10;;;22.40;58.50;;;;;;5071002;28;20650;-66
2022/04/20 12:09:59;;;;;;;3.53;3.30;;;22.30;55.40;;;;;;5074467;28;20170;-67
2022/04/20 12:12:25;;;;;;;4.00;3.70;;;22.40;55.70;;;;;;5074371;28;20174;-65
2022/04/20 12:14:50;;;;;;;3.47;3.22;;;22.40;58.00;;;;;;5074125;28;20205;-66
2022/04/20 12:17:20;;;;;;;3.53;3.22;;;22.50;56.10;;;;;;5074318;28;20174;-66
2022/04/20 12:19:46;;;;;;;3.80;3.50;;;22.70;57.60;;;;;;5074897;28;20662;-66
2022/04/20 12:22:14;;;;;;;5.03;3.50;;;22.90;58.90;;;;;;5074213;28;20230;-66
2022/04/20 12:24:43;;;;;;;3.88;3.53;;;22.90;58.30;;;;;;5073467;28;20660;-66
2022/04/20 12:27:19;;;;;;;3.40;3.10;;;22.90;56.80;;;;;;5074044;28;20372;-66
2022/04/20 12:29:53;;;;;;;3.45;3.25;;;22.40;57.20;;;;;;5074606;28;20498;-66
2022/04/20 12:32:26;;;;;;;4.82;3.50;;;22.10;62.40;;;;;;5072340;28;20204;-67
2022/04/20 12:34:54;;;;;;;3.58;3.28;;;22.30;59.40;;;;;;5064906;28;20244;-66
2022/04/20 12:37:28;;;;;;;3.63;3.33;;;22.50;58.30;;;;;;5074202;28;20177;-67
2022/04/20 12:39:55;;;;;;;3.60;3.40;;;22.60;54.90;;;;;;5073884;28;20617;-66
2022/04/20 12:42:20;;;;;;;3.97;3.50;;;22.50;57.80;;;;;;5072836;28;20647;-67
2022/04/20 12:44:47;;;;;;;3.78;3.47;;;22.60;60.20;;;;;;5073531;28;20210;-67
2022/04/20 12:47:16;;;;;;;3.90;3.60;;;22.90;59.80;;;;;;5073939;28;20265;-67
2022/04/20 12:49:43;;;;;;;4.28;3.53;;;23.00;63.10;;;;;;5073450;28;20186;-67
2022/04/20 12:52:12;;;;;;;3.67;3.10;;;23.10;64.70;;;;;;5073945;28;20647;-67
2022/04/20 12:54:38;;;;;;;3.40;3.15;;;23.70;60.90;;;;;;5073383;28;20278;-67
2022/04/20 13:02:57;;;;;;;3.53;3.30;;;23.20;59.50;;;;;;5073559;28;20671;-66
2022/04/20 13:05:23;;;;;;;4.05;3.40;;;23.10;57.60;;;;;;5077263;28;20561;-66
2022/04/20 13:07:48;;;;;;;3.92;3.63;;;22.90;60.50;;;;;;5082422;28;20178;-68
2022/04/20 13:10:14;;;;;;;3.60;3.30;;;22.80;56.30;;;;;;5073425;28;20639;-66
2022/04/20 13:12:50;;;;;;;4.32;3.25;;;22.50;57.70;;;;;;5073856;28;20177;-67
2022/04/20 13:15:16;;;;;;;3.85;3.55;;;22.10;54.80;;;;;;5071732;28;20284;-66
2022/04/20 13:17:42;;;;;;;3.22;3.03;;;21.80;56.20;;;;;;5073441;28;20227;-66
2022/04/20 13:20:08;;;;;;;3.85;3.50;;;21.90;58.70;;;;;;5072922;28;20170;-67
2022/04/20 13:22:34;;;;;;;3.60;3.30;;;22.40;59.50;;;;;;5073526;28;20219;-67
2022/04/20 13:27:56;;;;;;;3.38;3.17;;;22.80;57.70;;;;;;5072863;28;20220;-66
2022/04/20 13:30:22;;;;;;;3.53;3.22;;;22.70;61.70;;;;;;5072580;28;20177;-66
2022/04/20 13:32:52;;;;;;;3.33;3.10;;;22.90;58.10;;;;;;5073127;28;20182;-67